sensor_id;sensor_type;location;lat;lon;timestamp;temperature;humidity
15044;DHT22;7619;48.562;8.910;2022-11-03T00:01:22;4.30;99.90
15044;DHT22;7619;48.562;8.910;2022-11-03T00:11:15;4.30;99.90
15044;DHT22;7619;48.562;8.910;2022-11-03T00:21:12;4.20;99.90
15044;DHT22;7619;48.562;8.910;2022-11-03T00:23:42;4.20;99.90
15044;DHT22;7619;48.562;8.910;2022-11-03T00:26:12;4.20;99.90
15044;DHT22;7619;48.562;8.910;2022-11-03T00:28:43;4.20;99.90
15044;DHT22;7619;48.562;8.910;2022-11-03T00:31:13;4.20;99.90
15044;DHT22;7619;48.562;8.910;2022-11-03T00:38:41;4.20;99.90
15044;DHT22;7619;48.562;8.910;2022-11-03T00:43:39;4.20;99.90
15044;DHT22;7619;48.562;8.910;2022-11-03T00:48:37;4.30;99.90
15044;DHT22;7619;48.562;8.910;2022-11-03T00:56:06;4.00;99.90
15044;DHT22;7619;48.562;8.910;2022-11-03T00:58:35;4.00;99.90
15044;DHT22;7619;48.562;8.910;2022-11-03T01:03:35;3.60;99.90
15044;DHT22;7619;48.562;8.910;2022-11-03T01:06:07;3.60;99.90
15044;DHT22;7619;48.562;8.910;2022-11-03T01:08:55;3.50;99.90
15044;DHT22;7619;48.562;8.910;2022-11-03T01:11:24;3.50;99.90
15044;DHT22;7619;48.562;8.910;2022-11-03T01:14:13;3.50;99.90
15044;DHT22;7619;48.562;8.910;2022-11-03T01:16:43;3.60;99.90
15044;DHT22;7619;48.562;8.910;2022-11-03T01:19:12;3.60;99.90
15044;DHT22;7619;48.562;8.910;2022-11-03T01:21:41;3.60;99.90
15044;DHT22;7619;48.562;8.910;2022-11-03T01:29:07;3.40;99.90
15044;DHT22;7619;48.562;8.910;2022-11-03T01:36:33;3.50;99.90
15044;DHT22;7619;48.562;8.910;2022-11-03T01:39:01;3.50;99.90
15044;DHT22;7619;48.562;8.910;2022-11-03T01:46:47;3.50;99.90
15044;DHT22;7619;48.562;8.910;2022-11-03T01:54:18;3.20;99.90
15044;DHT22;7619;48.562;8.910;2022-11-03T01:56:47;3.20;99.90
15044;DHT22;7619;48.562;8.910;2022-11-03T01:59:19;3.20;99.90
15044;DHT22;7619;48.562;8.910;2022-11-03T02:06:47;2.90;99.90
15044;DHT22;7619;48.562;8.910;2022-11-03T02:09:18;2.90;99.90
15044;DHT22;7619;48.562;8.910;2022-11-03T02:11:47;3.00;99.90
15044;DHT22;7619;48.562;8.910;2022-11-03T02:14:37;3.00;99.90
15044;DHT22;7619;48.562;8.910;2022-11-03T02:17:09;3.00;99.90
15044;DHT22;7619;48.562;8.910;2022-11-03T02:19:42;2.90;99.90
15044;DHT22;7619;48.562;8.910;2022-11-03T02:22:45;3.00;99.90
15044;DHT22;7619;48.562;8.910;2022-11-03T02:27:44;3.00;99.90
15044;DHT22;7619;48.562;8.910;2022-11-03T02:40:14;3.00;99.90
15044;DHT22;7619;48.562;8.910;2022-11-03T02:42:47;3.00;99.90
15044;DHT22;7619;48.562;8.910;2022-11-03T02:45:19;3.00;99.90
15044;DHT22;7619;48.562;8.910;2022-11-03T02:50:17;2.90;99.90
15044;DHT22;7619;48.562;8.910;2022-11-03T02:52:49;2.80;99.90
15044;DHT22;7619;48.562;8.910;2022-11-03T02:55:22;2.90;99.90
15044;DHT22;7619;48.562;8.910;2022-11-03T02:57:54;2.90;99.90
15044;DHT22;7619;48.562;8.910;2022-11-03T03:00:23;2.90;99.90
15044;DHT22;7619;48.562;8.910;2022-11-03T03:05:25;2.80;99.90
15044;DHT22;7619;48.562;8.910;2022-11-03T03:07:59;2.80;99.90
15044;DHT22;7619;48.562;8.910;2022-11-03T03:12:58;2.70;99.90
15044;DHT22;7619;48.562;8.910;2022-11-03T03:18:11;2.50;99.90
15044;DHT22;7619;48.562;8.910;2022-11-03T03:20:44;2.50;99.90
15044;DHT22;7619;48.562;8.910;2022-11-03T03:25:53;2.30;99.90
15044;DHT22;7619;48.562;8.910;2022-11-03T03:28:27;2.20;99.90
15044;DHT22;7619;48.562;8.910;2022-11-03T03:30:57;2.20;99.90
15044;DHT22;7619;48.562;8.910;2022-11-03T03:33:29;2.20;99.90
15044;DHT22;7619;48.562;8.910;2022-11-03T03:36:02;2.30;99.90
15044;DHT22;7619;48.562;8.910;2022-11-03T03:38:34;2.30;99.90
15044;DHT22;7619;48.562;8.910;2022-11-03T03:41:05;2.50;99.90
15044;DHT22;7619;48.562;8.910;2022-11-03T03:43:35;2.60;99.90
15044;DHT22;7619;48.562;8.910;2022-11-03T03:48:35;2.60;99.90
15044;DHT22;7619;48.562;8.910;2022-11-03T03:51:04;2.50;99.90
15044;DHT22;7619;48.562;8.910;2022-11-03T03:53:34;2.40;99.90
15044;DHT22;7619;48.562;8.910;2022-11-03T03:58:32;2.40;99.90
15044;DHT22;7619;48.562;8.910;2022-11-03T04:10:56;2.30;99.90
15044;DHT22;7619;48.562;8.910;2022-11-03T04:13:43;2.30;99.90
15044;DHT22;7619;48.562;8.910;2022-11-03T04:19:16;2.40;99.90
15044;DHT22;7619;48.562;8.910;2022-11-03T04:22:02;2.60;99.90
15044;DHT22;7619;48.562;8.910;2022-11-03T04:24:44;2.60;99.90
15044;DHT22;7619;48.562;8.910;2022-11-03T04:27:28;2.60;99.90
15044;DHT22;7619;48.562;8.910;2022-11-03T04:30:09;2.60;99.90
15044;DHT22;7619;48.562;8.910;2022-11-03T04:32:36;2.50;99.90
15044;DHT22;7619;48.562;8.910;2022-11-03T04:35:16;2.40;99.90
15044;DHT22;7619;48.562;8.910;2022-11-03T04:37:46;2.30;99.90
15044;DHT22;7619;48.562;8.910;2022-11-03T04:42:45;2.30;99.90
15044;DHT22;7619;48.562;8.910;2022-11-03T04:45:23;2.10;99.90
15044;DHT22;7619;48.562;8.910;2022-11-03T04:47:52;1.90;99.90
15044;DHT22;7619;48.562;8.910;2022-11-03T04:52:54;2.00;99.90
15044;DHT22;7619;48.562;8.910;2022-11-03T04:55:23;1.90;99.90
15044;DHT22;7619;48.562;8.910;2022-11-03T05:00:40;2.10;99.90
15044;DHT22;7619;48.562;8.910;2022-11-03T05:03:12;2.10;99.90
15044;DHT22;7619;48.562;8.910;2022-11-03T05:05:42;2.10;99.90
15044;DHT22;7619;48.562;8.910;2022-11-03T05:08:11;2.10;99.90
15044;DHT22;7619;48.562;8.910;2022-11-03T05:10:40;2.10;99.90
15044;DHT22;7619;48.562;8.910;2022-11-03T05:13:15;2.20;99.90
15044;DHT22;7619;48.562;8.910;2022-11-03T05:15:45;2.20;99.90
15044;DHT22;7619;48.562;8.910;2022-11-03T05:18:19;2.00;99.90
15044;DHT22;7619;48.562;8.910;2022-11-03T05:20:51;1.90;99.90
15044;DHT22;7619;48.562;8.910;2022-11-03T05:23:22;1.90;99.90
15044;DHT22;7619;48.562;8.910;2022-11-03T05:25:53;1.80;99.90
15044;DHT22;7619;48.562;8.910;2022-11-03T05:28:27;1.80;99.90
15044;DHT22;7619;48.562;8.910;2022-11-03T05:30:56;1.80;99.90
15044;DHT22;7619;48.562;8.910;2022-11-03T05:33:30;1.80;99.90
15044;DHT22;7619;48.562;8.910;2022-11-03T05:36:03;1.80;99.90
15044;DHT22;7619;48.562;8.910;2022-11-03T05:38:32;1.80;99.90
15044;DHT22;7619;48.562;8.910;2022-11-03T05:41:02;1.80;99.90
15044;DHT22;7619;48.562;8.910;2022-11-03T05:43:31;1.80;99.90
15044;DHT22;7619;48.562;8.910;2022-11-03T05:46:02;1.70;99.90
15044;DHT22;7619;48.562;8.910;2022-11-03T05:48:33;1.80;99.90
15044;DHT22;7619;48.562;8.910;2022-11-03T05:51:11;1.70;99.90
15044;DHT22;7619;48.562;8.910;2022-11-03T05:53:41;1.80;99.90
15044;DHT22;7619;48.562;8.910;2022-11-03T05:56:14;1.80;99.90
15044;DHT22;7619;48.562;8.910;2022-11-03T05:58:44;1.80;99.90
15044;DHT22;7619;48.562;8.910;2022-11-03T06:01:18;1.80;99.90
15044;DHT22;7619;48.562;8.910;2022-11-03T06:03:47;1.80;99.90
15044;DHT22;7619;48.562;8.910;2022-11-03T06:06:19;1.90;99.90
15044;DHT22;7619;48.562;8.910;2022-11-03T06:08:48;1.90;99.90
15044;DHT22;7619;48.562;8.910;2022-11-03T06:11:26;1.90;99.90
15044;DHT22;7619;48.562;8.910;2022-11-03T06:13:57;1.80;99.90
15044;DHT22;7619;48.562;8.910;2022-11-03T06:16:39;1.80;99.90
15044;DHT22;7619;48.562;8.910;2022-11-03T06:19:24;1.80;99.90
15044;DHT22;7619;48.562;8.910;2022-11-03T06:21:56;1.80;99.90
15044;DHT22;7619;48.562;8.910;2022-11-03T06:24:29;1.80;99.90
15044;DHT22;7619;48.562;8.910;2022-11-03T06:26:58;1.90;99.90
15044;DHT22;7619;48.562;8.910;2022-11-03T06:29:30;1.80;99.90
15044;DHT22;7619;48.562;8.910;2022-11-03T06:32:00;1.90;99.90
15044;DHT22;7619;48.562;8.910;2022-11-03T06:34:36;2.00;99.90
15044;DHT22;7619;48.562;8.910;2022-11-03T06:37:16;2.10;99.90
15044;DHT22;7619;48.562;8.910;2022-11-03T06:39:45;2.20;99.90
15044;DHT22;7619;48.562;8.910;2022-11-03T06:42:18;2.40;99.90
15044;DHT22;7619;48.562;8.910;2022-11-03T06:44:47;2.50;99.90
15044;DHT22;7619;48.562;8.910;2022-11-03T06:47:22;2.40;99.90
15044;DHT22;7619;48.562;8.910;2022-11-03T06:49:52;2.40;99.90
15044;DHT22;7619;48.562;8.910;2022-11-03T06:52:30;2.40;99.90
15044;DHT22;7619;48.562;8.910;2022-11-03T06:55:23;2.60;99.90
15044;DHT22;7619;48.562;8.910;2022-11-03T06:57:56;2.70;99.90
15044;DHT22;7619;48.562;8.910;2022-11-03T07:00:26;2.90;99.90
15044;DHT22;7619;48.562;8.910;2022-11-03T07:02:59;3.00;99.90
15044;DHT22;7619;48.562;8.910;2022-11-03T07:05:31;3.20;99.90
15044;DHT22;7619;48.562;8.910;2022-11-03T07:08:02;3.30;99.90
15044;DHT22;7619;48.562;8.910;2022-11-03T07:10:32;3.40;99.90
15044;DHT22;7619;48.562;8.910;2022-11-03T07:13:09;3.50;99.90
15044;DHT22;7619;48.562;8.910;2022-11-03T07:15:36;3.50;99.90
15044;DHT22;7619;48.562;8.910;2022-11-03T07:18:12;3.60;99.90
15044;DHT22;7619;48.562;8.910;2022-11-03T07:20:41;3.60;99.90
15044;DHT22;7619;48.562;8.910;2022-11-03T07:23:13;3.80;99.90
15044;DHT22;7619;48.562;8.910;2022-11-03T07:25:42;4.00;99.90
15044;DHT22;7619;48.562;8.910;2022-11-03T07:28:13;4.00;99.90
15044;DHT22;7619;48.562;8.910;2022-11-03T07:30:42;4.10;99.90
15044;DHT22;7619;48.562;8.910;2022-11-03T07:33:13;4.20;99.90
15044;DHT22;7619;48.562;8.910;2022-11-03T07:35:45;4.30;99.90
15044;DHT22;7619;48.562;8.910;2022-11-03T07:38:17;4.50;99.90
15044;DHT22;7619;48.562;8.910;2022-11-03T07:40:47;4.40;99.90
15044;DHT22;7619;48.562;8.910;2022-11-03T07:43:18;4.60;99.90
15044;DHT22;7619;48.562;8.910;2022-11-03T07:45:50;4.80;99.90
15044;DHT22;7619;48.562;8.910;2022-11-03T07:48:21;4.90;99.90
15044;DHT22;7619;48.562;8.910;2022-11-03T07:50:52;5.00;99.90
15044;DHT22;7619;48.562;8.910;2022-11-03T07:53:29;5.10;99.90
15044;DHT22;7619;48.562;8.910;2022-11-03T07:55:59;5.20;99.90
15044;DHT22;7619;48.562;8.910;2022-11-03T07:58:34;5.30;99.90
15044;DHT22;7619;48.562;8.910;2022-11-03T08:01:07;5.30;99.90
15044;DHT22;7619;48.562;8.910;2022-11-03T08:03:41;5.40;99.90
15044;DHT22;7619;48.562;8.910;2022-11-03T08:06:11;5.60;99.90
15044;DHT22;7619;48.562;8.910;2022-11-03T08:11:18;5.80;99.90
15044;DHT22;7619;48.562;8.910;2022-11-03T08:13:48;6.00;99.90
15044;DHT22;7619;48.562;8.910;2022-11-03T08:16:17;6.10;99.90
15044;DHT22;7619;48.562;8.910;2022-11-03T08:18:47;6.10;99.90
15044;DHT22;7619;48.562;8.910;2022-11-03T08:21:15;6.20;99.90
15044;DHT22;7619;48.562;8.910;2022-11-03T08:23:44;6.20;99.90
15044;DHT22;7619;48.562;8.910;2022-11-03T08:26:13;6.30;99.90
15044;DHT22;7619;48.562;8.910;2022-11-03T08:28:42;6.50;99.90
15044;DHT22;7619;48.562;8.910;2022-11-03T08:31:11;6.70;99.90
15044;DHT22;7619;48.562;8.910;2022-11-03T08:33:40;6.70;99.90
15044;DHT22;7619;48.562;8.910;2022-11-03T08:36:09;10.10;99.90
15044;DHT22;7619;48.562;8.910;2022-11-03T08:38:38;6.80;99.90
15044;DHT22;7619;48.562;8.910;2022-11-03T08:41:07;6.80;99.90
15044;DHT22;7619;48.562;8.910;2022-11-03T08:43:36;7.10;99.90
15044;DHT22;7619;48.562;8.910;2022-11-03T08:46:05;7.40;99.90
15044;DHT22;7619;48.562;8.910;2022-11-03T08:48:34;7.60;99.90
15044;DHT22;7619;48.562;8.910;2022-11-03T08:51:03;7.70;99.90
15044;DHT22;7619;48.562;8.910;2022-11-03T08:53:34;7.60;99.90
15044;DHT22;7619;48.562;8.910;2022-11-03T08:56:06;7.70;99.90
15044;DHT22;7619;48.562;8.910;2022-11-03T08:58:35;7.80;99.90
15044;DHT22;7619;48.562;8.910;2022-11-03T09:01:04;7.70;99.90
15044;DHT22;7619;48.562;8.910;2022-11-03T09:03:32;7.80;99.90
15044;DHT22;7619;48.562;8.910;2022-11-03T09:06:01;7.90;99.90
15044;DHT22;7619;48.562;8.910;2022-11-03T09:08:30;8.10;99.90
15044;DHT22;7619;48.562;8.910;2022-11-03T09:10:59;8.40;99.90
15044;DHT22;7619;48.562;8.910;2022-11-03T09:13:28;8.60;99.90
15044;DHT22;7619;48.562;8.910;2022-11-03T09:15:57;8.90;99.90
15044;DHT22;7619;48.562;8.910;2022-11-03T09:18:25;8.60;99.90
15044;DHT22;7619;48.562;8.910;2022-11-03T09:20:54;8.80;99.90
15044;DHT22;7619;48.562;8.910;2022-11-03T09:26:02;8.90;99.90
15044;DHT22;7619;48.562;8.910;2022-11-03T09:31:08;9.50;99.90
15044;DHT22;7619;48.562;8.910;2022-11-03T09:36:13;9.70;99.90
15044;DHT22;7619;48.562;8.910;2022-11-03T09:41:18;9.60;99.90
15044;DHT22;7619;48.562;8.910;2022-11-03T09:43:47;9.60;99.90
15044;DHT22;7619;48.562;8.910;2022-11-03T09:46:17;9.60;99.90
15044;DHT22;7619;48.562;8.910;2022-11-03T09:48:46;9.50;99.90
15044;DHT22;7619;48.562;8.910;2022-11-03T09:51:17;9.40;99.90
15044;DHT22;7619;48.562;8.910;2022-11-03T09:53:47;9.50;99.90
15044;DHT22;7619;48.562;8.910;2022-11-03T09:56:18;9.50;99.90
15044;DHT22;7619;48.562;8.910;2022-11-03T09:58:48;9.40;99.90
15044;DHT22;7619;48.562;8.910;2022-11-03T10:03:57;9.40;99.90
15044;DHT22;7619;48.562;8.910;2022-11-03T10:06:27;9.50;99.90
15044;DHT22;7619;48.562;8.910;2022-11-03T10:08:57;9.60;99.90
15044;DHT22;7619;48.562;8.910;2022-11-03T10:11:26;9.70;99.90
15044;DHT22;7619;48.562;8.910;2022-11-03T10:13:56;9.80;99.90
15044;DHT22;7619;48.562;8.910;2022-11-03T10:19:03;10.00;99.90
15044;DHT22;7619;48.562;8.910;2022-11-03T10:21:32;10.10;99.90
15044;DHT22;7619;48.562;8.910;2022-11-03T10:24:03;10.20;99.90
15044;DHT22;7619;48.562;8.910;2022-11-03T10:29:34;10.30;99.90
15044;DHT22;7619;48.562;8.910;2022-11-03T10:32:04;10.70;99.90
15044;DHT22;7619;48.562;8.910;2022-11-03T10:34:36;10.90;99.90
15044;DHT22;7619;48.562;8.910;2022-11-03T10:37:15;11.00;99.90
15044;DHT22;7619;48.562;8.910;2022-11-03T10:42:25;11.30;99.90
15044;DHT22;7619;48.562;8.910;2022-11-03T10:47:49;11.80;99.90
15044;DHT22;7619;48.562;8.910;2022-11-03T10:50:22;11.90;99.90
15044;DHT22;7619;48.562;8.910;2022-11-03T10:52:52;11.90;99.90
15044;DHT22;7619;48.562;8.910;2022-11-03T10:55:22;12.00;90.70
15044;DHT22;7619;48.562;8.910;2022-11-03T10:57:52;11.90;1.00
15044;DHT22;7619;48.562;8.910;2022-11-03T11:00:23;11.90;1.00
15044;DHT22;7619;48.562;8.910;2022-11-03T11:05:32;11.80;1.00
15044;DHT22;7619;48.562;8.910;2022-11-03T11:08:01;11.90;99.90
15044;DHT22;7619;48.562;8.910;2022-11-03T11:10:31;11.90;99.90
15044;DHT22;7619;48.562;8.910;2022-11-03T11:13:22;12.00;71.50
15044;DHT22;7619;48.562;8.910;2022-11-03T11:15:45;12.00;9.80
15044;DHT22;7619;48.562;8.910;2022-11-03T11:30:01;12.20;1.00
15044;DHT22;7619;48.562;8.910;2022-11-03T11:38:59;12.40;1.00
15044;DHT22;7619;48.562;8.910;2022-11-03T11:44:54;13.00;1.00
15044;DHT22;7619;48.562;8.910;2022-11-03T11:53:29;12.60;1.00
15044;DHT22;7619;48.562;8.910;2022-11-03T11:56:00;12.50;1.00
15044;DHT22;7619;48.562;8.910;2022-11-03T11:58:35;12.60;1.00
15044;DHT22;7619;48.562;8.910;2022-11-03T12:01:18;12.50;1.00
15044;DHT22;7619;48.562;8.910;2022-11-03T12:03:40;12.50;1.00
15044;DHT22;7619;48.562;8.910;2022-11-03T12:06:12;12.60;1.00
15044;DHT22;7619;48.562;8.910;2022-11-03T12:08:41;12.50;99.90
15044;DHT22;7619;48.562;8.910;2022-11-03T12:11:11;12.30;1.00
15044;DHT22;7619;48.562;8.910;2022-11-03T12:13:48;12.20;1.00
15044;DHT22;7619;48.562;8.910;2022-11-03T12:16:32;12.10;99.90
15044;DHT22;7619;48.562;8.910;2022-11-03T12:19:35;11.90;1.00
15044;DHT22;7619;48.562;8.910;2022-11-03T12:22:06;11.90;99.90
15044;DHT22;7619;48.562;8.910;2022-11-03T12:27:42;12.00;99.90
15044;DHT22;7619;48.562;8.910;2022-11-03T12:32:54;12.20;99.90
15044;DHT22;7619;48.562;8.910;2022-11-03T12:35:24;12.20;99.90
15044;DHT22;7619;48.562;8.910;2022-11-03T12:37:53;12.30;99.90
15044;DHT22;7619;48.562;8.910;2022-11-03T12:40:22;12.20;99.90
15044;DHT22;7619;48.562;8.910;2022-11-03T12:42:53;12.20;99.90
15044;DHT22;7619;48.562;8.910;2022-11-03T12:45:22;12.20;99.90
15044;DHT22;7619;48.562;8.910;2022-11-03T12:50:32;12.00;99.90
15044;DHT22;7619;48.562;8.910;2022-11-03T12:53:01;11.90;99.90
15044;DHT22;7619;48.562;8.910;2022-11-03T12:55:30;11.90;99.90
15044;DHT22;7619;48.562;8.910;2022-11-03T12:57:59;11.90;99.90
15044;DHT22;7619;48.562;8.910;2022-11-03T13:00:30;11.90;99.90
15044;DHT22;7619;48.562;8.910;2022-11-03T13:02:59;11.90;99.90
15044;DHT22;7619;48.562;8.910;2022-11-03T13:05:28;11.90;99.90
15044;DHT22;7619;48.562;8.910;2022-11-03T13:07:57;12.00;99.90
15044;DHT22;7619;48.562;8.910;2022-11-03T13:10:26;12.00;99.90
15044;DHT22;7619;48.562;8.910;2022-11-03T13:12:55;12.10;99.90
15044;DHT22;7619;48.562;8.910;2022-11-03T13:18:03;12.30;99.90
15044;DHT22;7619;48.562;8.910;2022-11-03T13:23:09;12.40;99.90
15044;DHT22;7619;48.562;8.910;2022-11-03T13:25:38;12.30;99.90
15044;DHT22;7619;48.562;8.910;2022-11-03T13:28:07;12.50;99.90
15044;DHT22;7619;48.562;8.910;2022-11-03T13:30:36;12.50;99.90
15044;DHT22;7619;48.562;8.910;2022-11-03T13:33:07;12.40;99.90
15044;DHT22;7619;48.562;8.910;2022-11-03T13:35:36;12.40;99.90
15044;DHT22;7619;48.562;8.910;2022-11-03T13:38:05;12.40;99.90
15044;DHT22;7619;48.562;8.910;2022-11-03T13:40:34;12.40;99.90
15044;DHT22;7619;48.562;8.910;2022-11-03T13:43:03;12.50;99.90
15044;DHT22;7619;48.562;8.910;2022-11-03T13:45:32;12.40;99.90
15044;DHT22;7619;48.562;8.910;2022-11-03T13:48:01;12.30;99.90
15044;DHT22;7619;48.562;8.910;2022-11-03T13:50:30;12.20;99.90
15044;DHT22;7619;48.562;8.910;2022-11-03T13:52:59;12.10;99.90
15044;DHT22;7619;48.562;8.910;2022-11-03T13:55:28;12.00;99.90
15044;DHT22;7619;48.562;8.910;2022-11-03T13:57:57;12.10;99.90
15044;DHT22;7619;48.562;8.910;2022-11-03T14:00:26;12.00;99.90
15044;DHT22;7619;48.562;8.910;2022-11-03T14:02:55;11.90;99.90
15044;DHT22;7619;48.562;8.910;2022-11-03T14:05:24;11.90;99.90
15044;DHT22;7619;48.562;8.910;2022-11-03T14:07:53;11.90;99.90
15044;DHT22;7619;48.562;8.910;2022-11-03T14:10:21;11.90;99.90
15044;DHT22;7619;48.562;8.910;2022-11-03T14:12:50;11.80;99.90
15044;DHT22;7619;48.562;8.910;2022-11-03T14:15:19;11.90;99.90
15044;DHT22;7619;48.562;8.910;2022-11-03T14:17:48;11.90;99.90
15044;DHT22;7619;48.562;8.910;2022-11-03T14:20:17;11.90;99.90
15044;DHT22;7619;48.562;8.910;2022-11-03T14:22:46;11.90;99.90
15044;DHT22;7619;48.562;8.910;2022-11-03T14:25:15;11.90;99.90
15044;DHT22;7619;48.562;8.910;2022-11-03T14:27:46;11.90;99.90
15044;DHT22;7619;48.562;8.910;2022-11-03T14:30:16;11.80;99.90
15044;DHT22;7619;48.562;8.910;2022-11-03T14:32:44;11.70;99.90
15044;DHT22;7619;48.562;8.910;2022-11-03T14:35:14;11.60;99.90
15044;DHT22;7619;48.562;8.910;2022-11-03T14:37:46;11.50;99.90
15044;DHT22;7619;48.562;8.910;2022-11-03T14:40:15;11.50;99.90
15044;DHT22;7619;48.562;8.910;2022-11-03T14:43:03;11.40;99.90
15044;DHT22;7619;48.562;8.910;2022-11-03T14:45:32;11.40;99.90
15044;DHT22;7619;48.562;8.910;2022-11-03T14:48:01;11.30;99.90
15044;DHT22;7619;48.562;8.910;2022-11-03T14:50:30;11.20;99.90
15044;DHT22;7619;48.562;8.910;2022-11-03T14:52:59;11.20;99.90
15044;DHT22;7619;48.562;8.910;2022-11-03T14:55:28;11.20;99.90
15044;DHT22;7619;48.562;8.910;2022-11-03T14:57:57;11.20;99.90
15044;DHT22;7619;48.562;8.910;2022-11-03T15:00:26;11.10;99.90
15044;DHT22;7619;48.562;8.910;2022-11-03T15:02:55;11.20;99.90
15044;DHT22;7619;48.562;8.910;2022-11-03T15:05:27;11.20;99.90
15044;DHT22;7619;48.562;8.910;2022-11-03T15:10:49;11.20;99.90
15044;DHT22;7619;48.562;8.910;2022-11-03T15:13:18;11.20;99.90
15044;DHT22;7619;48.562;8.910;2022-11-03T15:15:47;11.10;99.90
15044;DHT22;7619;48.562;8.910;2022-11-03T15:18:16;11.10;99.90
15044;DHT22;7619;48.562;8.910;2022-11-03T15:20:45;11.00;99.90
15044;DHT22;7619;48.562;8.910;2022-11-03T15:23:14;11.00;99.90
15044;DHT22;7619;48.562;8.910;2022-11-03T15:25:43;11.00;99.90
15044;DHT22;7619;48.562;8.910;2022-11-03T15:28:12;11.00;99.90
15044;DHT22;7619;48.562;8.910;2022-11-03T15:30:41;10.90;99.90
15044;DHT22;7619;48.562;8.910;2022-11-03T15:33:10;11.00;99.90
15044;DHT22;7619;48.562;8.910;2022-11-03T15:35:39;10.90;99.90
15044;DHT22;7619;48.562;8.910;2022-11-03T15:38:08;10.90;99.90
15044;DHT22;7619;48.562;8.910;2022-11-03T15:40:37;10.80;99.90
15044;DHT22;7619;48.562;8.910;2022-11-03T15:43:06;10.80;99.90
15044;DHT22;7619;48.562;8.910;2022-11-03T15:45:35;10.70;99.90
15044;DHT22;7619;48.562;8.910;2022-11-03T15:48:05;10.70;99.90
15044;DHT22;7619;48.562;8.910;2022-11-03T15:50:34;10.60;99.90
15044;DHT22;7619;48.562;8.910;2022-11-03T15:53:03;10.50;99.90
15044;DHT22;7619;48.562;8.910;2022-11-03T15:55:31;10.50;99.90
15044;DHT22;7619;48.562;8.910;2022-11-03T15:58:01;10.50;99.90
15044;DHT22;7619;48.562;8.910;2022-11-03T16:00:29;10.40;99.90
15044;DHT22;7619;48.562;8.910;2022-11-03T16:02:59;10.30;99.90
15044;DHT22;7619;48.562;8.910;2022-11-03T16:05:28;10.30;99.90
15044;DHT22;7619;48.562;8.910;2022-11-03T16:07:57;10.30;99.90
15044;DHT22;7619;48.562;8.910;2022-11-03T16:10:27;10.20;99.90
15044;DHT22;7619;48.562;8.910;2022-11-03T16:12:56;10.10;99.90
15044;DHT22;7619;48.562;8.910;2022-11-03T16:15:24;10.10;99.90
15044;DHT22;7619;48.562;8.910;2022-11-03T16:17:54;10.10;99.90
15044;DHT22;7619;48.562;8.910;2022-11-03T16:20:24;10.00;99.90
15044;DHT22;7619;48.562;8.910;2022-11-03T16:22:54;10.00;99.90
15044;DHT22;7619;48.562;8.910;2022-11-03T16:25:23;10.00;99.90
15044;DHT22;7619;48.562;8.910;2022-11-03T16:27:52;10.00;99.90
15044;DHT22;7619;48.562;8.910;2022-11-03T16:30:21;10.00;99.90
15044;DHT22;7619;48.562;8.910;2022-11-03T16:32:49;10.00;99.90
15044;DHT22;7619;48.562;8.910;2022-11-03T16:35:19;9.90;99.90
15044;DHT22;7619;48.562;8.910;2022-11-03T16:37:48;9.90;99.90
15044;DHT22;7619;48.562;8.910;2022-11-03T16:40:18;9.80;99.90
15044;DHT22;7619;48.562;8.910;2022-11-03T16:42:47;9.80;99.90
15044;DHT22;7619;48.562;8.910;2022-11-03T16:45:18;9.80;99.90
15044;DHT22;7619;48.562;8.910;2022-11-03T16:47:48;9.80;99.90
15044;DHT22;7619;48.562;8.910;2022-11-03T16:50:17;9.90;99.90
15044;DHT22;7619;48.562;8.910;2022-11-03T16:52:47;9.90;99.90
15044;DHT22;7619;48.562;8.910;2022-11-03T16:57:55;10.00;99.90
15044;DHT22;7619;48.562;8.910;2022-11-03T17:00:24;10.00;99.90
15044;DHT22;7619;48.562;8.910;2022-11-03T17:02:53;10.00;99.90
15044;DHT22;7619;48.562;8.910;2022-11-03T17:08:00;10.00;99.90
15044;DHT22;7619;48.562;8.910;2022-11-03T17:10:29;10.00;99.90
15044;DHT22;7619;48.562;8.910;2022-11-03T17:12:59;10.00;99.90
15044;DHT22;7619;48.562;8.910;2022-11-03T17:15:28;10.00;99.90
15044;DHT22;7619;48.562;8.910;2022-11-03T17:20:44;10.00;99.90
15044;DHT22;7619;48.562;8.910;2022-11-03T17:23:16;10.00;99.90
15044;DHT22;7619;48.562;8.910;2022-11-03T17:25:45;10.00;99.90
15044;DHT22;7619;48.562;8.910;2022-11-03T17:28:15;10.00;99.90
15044;DHT22;7619;48.562;8.910;2022-11-03T17:30:45;10.00;99.90
15044;DHT22;7619;48.562;8.910;2022-11-03T17:35:55;10.10;99.90
15044;DHT22;7619;48.562;8.910;2022-11-03T17:41:03;10.30;99.90
15044;DHT22;7619;48.562;8.910;2022-11-03T17:43:32;10.40;99.90
15044;DHT22;7619;48.562;8.910;2022-11-03T17:46:02;10.50;99.90
15044;DHT22;7619;48.562;8.910;2022-11-03T17:48:33;10.60;99.90
15044;DHT22;7619;48.562;8.910;2022-11-03T17:51:02;10.60;99.90
15044;DHT22;7619;48.562;8.910;2022-11-03T17:53:33;10.60;99.90
15044;DHT22;7619;48.562;8.910;2022-11-03T17:56:03;10.50;99.90
15044;DHT22;7619;48.562;8.910;2022-11-03T17:58:33;10.40;99.90
15044;DHT22;7619;48.562;8.910;2022-11-03T18:01:04;10.40;99.90
15044;DHT22;7619;48.562;8.910;2022-11-03T18:03:35;10.30;99.90
15044;DHT22;7619;48.562;8.910;2022-11-03T18:08:52;10.30;99.90
15044;DHT22;7619;48.562;8.910;2022-11-03T18:11:24;10.30;99.90
15044;DHT22;7619;48.562;8.910;2022-11-03T18:14:12;10.20;99.90
15044;DHT22;7619;48.562;8.910;2022-11-03T18:16:41;10.10;99.90
15044;DHT22;7619;48.562;8.910;2022-11-03T18:21:49;9.90;99.90
15044;DHT22;7619;48.562;8.910;2022-11-03T18:24:19;9.80;99.90
15044;DHT22;7619;48.562;8.910;2022-11-03T18:26:49;9.80;99.90
15044;DHT22;7619;48.562;8.910;2022-11-03T18:29:17;9.90;99.90
15044;DHT22;7619;48.562;8.910;2022-11-03T18:31:47;9.90;99.90
15044;DHT22;7619;48.562;8.910;2022-11-03T18:34:18;9.90;99.90
15044;DHT22;7619;48.562;8.910;2022-11-03T18:36:49;10.00;99.90
15044;DHT22;7619;48.562;8.910;2022-11-03T18:39:22;10.00;99.90
15044;DHT22;7619;48.562;8.910;2022-11-03T18:41:51;10.10;99.90
15044;DHT22;7619;48.562;8.910;2022-11-03T18:44:22;10.10;99.90
15044;DHT22;7619;48.562;8.910;2022-11-03T18:46:54;10.20;99.90
15044;DHT22;7619;48.562;8.910;2022-11-03T18:49:24;10.30;99.90
15044;DHT22;7619;48.562;8.910;2022-11-03T18:51:55;10.20;99.90
15044;DHT22;7619;48.562;8.910;2022-11-03T18:54:25;10.20;99.90
15044;DHT22;7619;48.562;8.910;2022-11-03T18:56:56;10.30;99.90
15044;DHT22;7619;48.562;8.910;2022-11-03T18:59:27;10.20;99.90
15044;DHT22;7619;48.562;8.910;2022-11-03T19:01:58;10.30;99.90
15044;DHT22;7619;48.562;8.910;2022-11-03T19:04:27;10.30;99.90
15044;DHT22;7619;48.562;8.910;2022-11-03T19:09:36;10.20;99.90
15044;DHT22;7619;48.562;8.910;2022-11-03T19:12:07;10.10;99.90
15044;DHT22;7619;48.562;8.910;2022-11-03T19:14:38;10.10;99.90
15044;DHT22;7619;48.562;8.910;2022-11-03T19:17:10;10.10;99.90
15044;DHT22;7619;48.562;8.910;2022-11-03T19:22:19;10.20;99.90
15044;DHT22;7619;48.562;8.910;2022-11-03T19:24:49;10.10;99.90
15044;DHT22;7619;48.562;8.910;2022-11-03T19:27:20;10.10;99.90
15044;DHT22;7619;48.562;8.910;2022-11-03T19:29:50;10.10;99.90
15044;DHT22;7619;48.562;8.910;2022-11-03T19:34:59;10.10;99.90
15044;DHT22;7619;48.562;8.910;2022-11-03T19:37:29;10.10;99.90
15044;DHT22;7619;48.562;8.910;2022-11-03T19:39:59;10.20;99.90
15044;DHT22;7619;48.562;8.910;2022-11-03T19:42:30;10.20;99.90
15044;DHT22;7619;48.562;8.910;2022-11-03T19:45:03;10.20;99.90
15044;DHT22;7619;48.562;8.910;2022-11-03T19:47:34;10.20;99.90